createdAt,value
2018-06-28T00:00:14.734Z,18.10
2018-06-28T00:02:19.472Z,18.00
2018-06-28T00:04:24.181Z,18.00
2018-06-28T00:06:28.894Z,18.00
2018-06-28T00:08:33.655Z,17.90
2018-06-28T00:10:38.426Z,17.90
2018-06-28T00:12:43.180Z,17.90
2018-06-28T00:14:48.391Z,17.80
2018-06-28T00:16:53.279Z,17.80
2018-06-28T00:18:57.931Z,17.80
2018-06-28T00:21:02.626Z,17.80
2018-06-28T00:25:12.814Z,17.70
2018-06-28T00:27:17.491Z,17.70
2018-06-28T00:29:27.084Z,17.60
2018-06-28T00:31:31.705Z,17.60
2018-06-28T00:33:36.417Z,17.60
2018-06-28T00:35:41.054Z,17.50
2018-06-28T00:37:45.669Z,17.50
2018-06-28T00:39:50.351Z,17.40
2018-06-28T00:41:55.018Z,17.40
2018-06-28T00:43:59.695Z,17.40
2018-06-28T00:46:04.476Z,17.30
2018-06-28T00:48:09.171Z,17.30
2018-06-28T00:50:13.817Z,17.30
2018-06-28T00:52:18.543Z,17.20
2018-06-28T00:54:23.232Z,17.20
2018-06-28T00:56:28.921Z,17.10
2018-06-28T00:58:33.611Z,17.10
2018-06-28T01:00:39.793Z,17.10
2018-06-28T01:02:46.417Z,17.00
2018-06-28T01:04:59.905Z,17.00
2018-06-28T01:09:14.185Z,16.90
2018-06-28T01:11:23.259Z,16.90
2018-06-28T01:13:30.715Z,16.80
2018-06-28T01:15:37.889Z,16.80
2018-06-28T01:17:43.446Z,16.80
2018-06-28T01:19:52.809Z,16.70
2018-06-28T01:21:58.905Z,16.70
2018-06-28T01:24:06.356Z,16.70
2018-06-28T01:26:12.891Z,16.70
2018-06-28T01:28:20.594Z,16.60
2018-06-28T01:30:27.998Z,16.60
2018-06-28T01:32:35.383Z,16.60
2018-06-28T01:34:42.683Z,16.50
2018-06-28T01:36:49.473Z,16.50
2018-06-28T01:38:55.942Z,16.50
2018-06-28T01:41:02.035Z,16.40
2018-06-28T01:43:42.014Z,16.40
2018-06-28T01:45:49.256Z,16.40
2018-06-28T01:47:55.808Z,16.30
2018-06-28T01:50:03.876Z,16.30
2018-06-28T01:54:16.400Z,16.20
2018-06-28T01:56:23.582Z,16.20
2018-06-28T01:58:30.662Z,16.20
2018-06-28T02:00:36.895Z,16.10
2018-06-28T02:02:41.829Z,16.10
2018-06-28T02:04:47.051Z,16.00
2018-06-28T02:06:57.073Z,16.00
2018-06-28T02:09:02.763Z,16.00
2018-06-28T02:11:09.852Z,15.90
2018-06-28T02:13:18.007Z,15.90
2018-06-28T02:15:24.809Z,15.90
2018-06-28T02:17:31.208Z,15.80
2018-06-28T02:19:35.857Z,15.80
2018-06-28T02:21:40.490Z,15.80
2018-06-28T02:23:45.210Z,15.80
2018-06-28T02:25:49.911Z,15.70
2018-06-28T02:27:54.608Z,15.70
2018-06-28T02:29:59.231Z,15.70
2018-06-28T02:32:03.906Z,15.70
2018-06-28T02:34:09.818Z,15.70
2018-06-28T02:36:16.426Z,15.60
2018-06-28T02:38:21.102Z,15.60
2018-06-28T02:40:25.806Z,15.60
2018-06-28T02:42:30.486Z,15.60
2018-06-28T02:44:35.181Z,15.50
2018-06-28T02:46:39.867Z,15.50
2018-06-28T02:48:44.512Z,15.50
2018-06-28T02:50:49.917Z,15.50
2018-06-28T02:52:54.649Z,15.40
2018-06-28T02:55:00.075Z,15.40
2018-06-28T02:57:04.821Z,15.40
2018-06-28T02:59:10.041Z,15.40
2018-06-28T03:01:14.713Z,15.30
2018-06-28T03:05:23.739Z,15.30
2018-06-28T03:07:28.388Z,15.30
2018-06-28T03:09:33.037Z,15.20
2018-06-28T03:11:41.715Z,15.20
2018-06-28T03:13:46.280Z,15.20
2018-06-28T03:15:50.996Z,15.10
2018-06-28T03:17:55.649Z,15.10
2018-06-28T03:20:00.333Z,15.10
2018-06-28T03:22:05.106Z,15.10
2018-06-28T03:24:10.498Z,15.10
2018-06-28T03:28:19.511Z,15.00
2018-06-28T03:30:24.157Z,15.00
2018-06-28T03:32:28.798Z,15.00
2018-06-28T03:34:33.529Z,15.00
2018-06-28T03:36:38.770Z,15.00
2018-06-28T03:38:44.461Z,14.90
2018-06-28T03:40:50.283Z,14.90
2018-06-28T03:42:54.944Z,14.90
2018-06-28T03:44:59.691Z,14.90
2018-06-28T03:47:04.301Z,14.90
2018-06-28T03:49:09.786Z,14.90
2018-06-28T03:51:14.427Z,14.90
2018-06-28T03:53:19.076Z,14.80
2018-06-28T03:57:28.570Z,14.80
2018-06-28T03:59:35.531Z,14.80
2018-06-28T04:01:43.447Z,14.80
2018-06-28T04:03:49.983Z,14.80
2018-06-28T04:05:55.509Z,14.70
2018-06-28T04:08:01.416Z,14.70
2018-06-28T04:10:07.030Z,14.70
2018-06-28T04:12:12.971Z,14.70
2018-06-28T04:14:18.737Z,14.70
2018-06-28T04:16:26.494Z,14.70
2018-06-28T04:18:33.529Z,14.70
2018-06-28T04:20:38.381Z,14.70
2018-06-28T04:22:46.805Z,14.70
2018-06-28T04:24:51.839Z,14.70
2018-06-28T04:26:56.630Z,14.60
2018-06-28T04:29:01.241Z,14.60
2018-06-28T04:31:05.988Z,14.60
2018-06-28T04:33:10.793Z,14.60
2018-06-28T04:35:15.516Z,14.60
2018-06-28T04:37:20.294Z,14.60
2018-06-28T04:39:25.015Z,14.60
2018-06-28T04:41:29.673Z,14.60
2018-06-28T04:43:34.461Z,14.70
2018-06-28T04:45:39.210Z,14.70
2018-06-28T04:47:43.917Z,14.70
2018-06-28T04:49:48.786Z,14.70
2018-06-28T04:51:53.573Z,14.70
2018-06-28T04:53:58.358Z,14.70
2018-06-28T04:56:03.122Z,14.70
2018-06-28T04:58:07.762Z,14.80
2018-06-28T05:00:12.343Z,14.80
2018-06-28T05:02:16.967Z,14.80
2018-06-28T05:04:21.650Z,14.80
2018-06-28T05:06:26.333Z,14.90
2018-06-28T05:08:31.362Z,14.90
2018-06-28T05:10:36.168Z,14.90
2018-06-28T05:14:45.143Z,15.00
2018-06-28T05:16:49.838Z,15.10
2018-06-28T05:18:54.515Z,15.10
2018-06-28T05:20:59.158Z,15.20
2018-06-28T05:23:03.875Z,15.30
2018-06-28T05:25:08.639Z,15.30
2018-06-28T05:27:13.317Z,15.40
2018-06-28T05:29:17.977Z,15.40
2018-06-28T05:31:22.623Z,15.50
2018-06-28T05:33:27.311Z,15.60
2018-06-28T05:35:32.090Z,15.70
2018-06-28T05:37:36.884Z,15.70
2018-06-28T05:39:41.558Z,15.80
2018-06-28T05:41:46.288Z,15.90
2018-06-28T05:43:53.192Z,15.90
2018-06-28T05:45:57.889Z,16.00
2018-06-28T05:48:02.622Z,16.10
2018-06-28T05:52:11.634Z,16.20
2018-06-28T05:54:16.263Z,16.30
2018-06-28T05:56:20.976Z,16.30
2018-06-28T06:00:30.041Z,16.50
2018-06-28T06:02:34.804Z,16.50
2018-06-28T06:04:39.512Z,16.60
2018-06-28T06:08:44.727Z,16.70
2018-06-28T06:10:49.185Z,16.80
2018-06-28T06:12:53.659Z,16.90
2018-06-28T06:14:58.096Z,17.00
2018-06-28T06:17:02.557Z,17.10
2018-06-28T06:19:07.095Z,17.20
2018-06-28T06:21:11.762Z,17.20
2018-06-28T06:23:16.309Z,17.30
2018-06-28T06:25:22.305Z,17.40
2018-06-28T06:27:26.918Z,17.50
2018-06-28T06:29:31.866Z,17.60
2018-06-28T06:31:36.459Z,17.70
2018-06-28T06:33:40.898Z,17.70
2018-06-28T06:35:45.371Z,17.80
2018-06-28T06:37:49.827Z,17.90
2018-06-28T06:39:54.323Z,18.00
2018-06-28T06:41:58.842Z,18.10
2018-06-28T06:44:03.796Z,18.20
2018-06-28T06:46:08.266Z,18.30
2018-06-28T06:48:12.746Z,18.40
2018-06-28T06:50:17.295Z,18.50
2018-06-28T06:52:21.803Z,18.60
2018-06-28T06:54:26.511Z,18.70
2018-06-28T06:56:31.040Z,18.80
2018-06-28T06:58:35.542Z,18.90
2018-06-28T07:02:44.788Z,19.10
2018-06-28T07:04:49.855Z,19.20
2018-06-28T07:06:57.823Z,19.30
2018-06-28T07:09:02.282Z,19.40
2018-06-28T07:11:07.194Z,19.50
2018-06-28T07:13:11.703Z,19.70
2018-06-28T07:17:20.413Z,19.90
2018-06-28T07:19:24.945Z,20.00
2018-06-28T07:21:29.445Z,20.10
2018-06-28T07:23:33.985Z,20.20
2018-06-28T07:25:38.430Z,20.40
2018-06-28T07:27:42.890Z,20.50
2018-06-28T07:29:47.373Z,20.60
2018-06-28T07:31:51.844Z,20.70
2018-06-28T07:33:56.595Z,20.80
2018-06-28T07:36:01.104Z,21.00
2018-06-28T07:38:05.997Z,21.10
2018-06-28T07:40:10.625Z,21.30
2018-06-28T07:42:15.655Z,21.40
2018-06-28T07:44:20.149Z,21.60
2018-06-28T07:46:24.637Z,21.70
2018-06-28T07:48:29.135Z,21.90
2018-06-28T07:50:33.671Z,22.00
2018-06-28T07:52:38.228Z,22.10
2018-06-28T07:54:42.783Z,22.30
2018-06-28T07:56:47.315Z,22.50
2018-06-28T07:58:51.812Z,22.60
2018-06-28T08:00:56.245Z,22.80
2018-06-28T08:03:00.755Z,22.90
2018-06-28T08:05:05.355Z,23.10
2018-06-28T08:07:09.918Z,23.20
2018-06-28T08:09:14.402Z,23.40
2018-06-28T08:11:18.926Z,23.50
2018-06-28T08:13:23.595Z,23.70
2018-06-28T08:15:28.058Z,23.80
2018-06-28T08:17:32.564Z,24.00
2018-06-28T08:19:38.338Z,24.10
2018-06-28T08:21:42.923Z,24.20
2018-06-28T08:23:47.583Z,24.40
2018-06-28T08:25:52.167Z,24.50
2018-06-28T08:27:57.063Z,24.60
2018-06-28T08:30:01.551Z,24.70
2018-06-28T08:32:08.460Z,24.90
2018-06-28T08:34:15.351Z,25.00
2018-06-28T08:36:24.139Z,25.10
2018-06-28T08:38:29.938Z,25.20
2018-06-28T08:40:36.281Z,25.30
2018-06-28T08:42:43.026Z,25.40
2018-06-28T08:44:51.065Z,25.50
2018-06-28T08:46:58.961Z,25.60
2018-06-28T08:49:07.289Z,25.70
2018-06-28T08:51:14.683Z,25.70
2018-06-28T08:53:22.074Z,25.80
2018-06-28T08:55:26.743Z,25.90
2018-06-28T08:57:31.465Z,25.90
2018-06-28T08:59:35.999Z,26.00
2018-06-28T09:01:40.466Z,26.00
2018-06-28T09:03:45.007Z,26.10
2018-06-28T09:05:49.499Z,26.10
2018-06-28T09:07:54.088Z,26.20
2018-06-28T09:09:58.709Z,26.30
2018-06-28T09:12:03.833Z,26.40
2018-06-28T09:14:08.465Z,26.50
2018-06-28T09:16:12.921Z,26.50
2018-06-28T09:18:18.509Z,26.60
2018-06-28T09:20:22.982Z,26.60
2018-06-28T09:22:27.597Z,26.70
2018-06-28T09:24:32.171Z,26.70
2018-06-28T09:26:41.265Z,26.80
2018-06-28T09:28:45.845Z,26.80
2018-06-28T09:30:50.387Z,26.90
2018-06-28T09:32:55.868Z,27.00
2018-06-28T09:35:00.464Z,27.00
2018-06-28T09:37:05.377Z,27.10
2018-06-28T09:39:11.246Z,27.20
2018-06-28T09:41:15.709Z,27.30
2018-06-28T09:43:20.210Z,27.30
2018-06-28T09:45:24.947Z,27.40
2018-06-28T09:47:29.411Z,27.50
2018-06-28T09:49:33.891Z,27.60
2018-06-28T09:51:38.405Z,27.70
2018-06-28T09:55:48.714Z,27.80
2018-06-28T09:57:53.318Z,27.90
2018-06-28T09:59:57.820Z,28.00
2018-06-28T10:02:02.315Z,28.10
2018-06-28T10:04:06.898Z,28.10
2018-06-28T10:06:11.369Z,28.20
2018-06-28T10:08:15.866Z,28.30
2018-06-28T10:10:20.406Z,28.30
2018-06-28T10:12:24.879Z,28.40
2018-06-28T10:14:29.424Z,28.40
2018-06-28T10:16:34.068Z,28.50
2018-06-28T10:18:38.571Z,28.50
2018-06-28T10:20:43.110Z,28.60
2018-06-28T10:22:47.721Z,28.60
2018-06-28T10:24:52.199Z,28.60
2018-06-28T10:26:56.851Z,28.70
2018-06-28T10:29:01.311Z,28.70
2018-06-28T10:31:05.819Z,28.80
2018-06-28T10:33:10.292Z,28.80
2018-06-28T10:35:14.958Z,28.80
2018-06-28T10:37:19.425Z,28.80
2018-06-28T10:39:24.706Z,28.90
2018-06-28T10:41:29.186Z,28.90
2018-06-28T10:43:33.831Z,28.90
2018-06-28T10:45:38.556Z,29.00
2018-06-28T10:47:43.052Z,29.00
2018-06-28T10:49:47.532Z,29.00
2018-06-28T10:51:52.106Z,29.00
2018-06-28T10:53:56.595Z,29.00
2018-06-28T10:56:01.091Z,29.10
2018-06-28T10:58:06.339Z,29.10
2018-06-28T11:00:11.026Z,29.10
2018-06-28T11:02:15.531Z,29.10
2018-06-28T11:04:20.122Z,29.20
2018-06-28T11:06:25.010Z,29.20
2018-06-28T11:12:38.835Z,29.40
2018-06-28T11:14:43.392Z,29.50
2018-06-28T11:16:49.051Z,29.50
2018-06-28T11:18:53.544Z,29.60
2018-06-28T11:20:58.643Z,29.70
2018-06-28T11:23:03.964Z,29.70
2018-06-28T11:25:08.478Z,29.80
2018-06-28T11:27:13.565Z,29.90
2018-06-28T11:29:18.039Z,29.90
2018-06-28T11:31:23.302Z,30.10
2018-06-28T11:33:27.909Z,30.10
2018-06-28T11:35:32.465Z,30.20
2018-06-28T11:37:37.426Z,30.20
2018-06-28T11:39:41.918Z,30.30
2018-06-28T11:41:46.523Z,30.30
2018-06-28T11:43:51.354Z,30.40
2018-06-28T11:48:00.864Z,30.50
2018-06-28T11:50:06.119Z,30.60
2018-06-28T11:52:10.595Z,30.60
2018-06-28T11:54:15.287Z,30.60
2018-06-28T11:56:20.422Z,30.70
2018-06-28T11:58:25.134Z,30.70
2018-06-28T12:00:29.603Z,30.70
2018-06-28T12:02:34.905Z,30.70
2018-06-28T12:04:40.143Z,30.80
2018-06-28T12:06:44.635Z,30.80
2018-06-28T12:08:49.117Z,30.80
2018-06-28T12:10:53.940Z,30.90
2018-06-28T12:12:58.401Z,30.90
2018-06-28T12:15:02.992Z,30.90
2018-06-28T12:17:07.525Z,31.00
2018-06-28T12:19:12.783Z,31.10
2018-06-28T12:21:17.675Z,31.10
2018-06-28T12:23:22.363Z,31.20
2018-06-28T12:25:26.892Z,31.20
2018-06-28T12:27:31.403Z,31.20
2018-06-28T12:29:36.180Z,31.30
2018-06-28T12:31:40.694Z,31.40
2018-06-28T12:33:45.223Z,31.40
2018-06-28T12:37:58.872Z,31.50
2018-06-28T12:40:04.195Z,31.50
2018-06-28T12:42:08.939Z,31.60
2018-06-28T12:44:14.280Z,31.60
2018-06-28T12:46:18.914Z,31.70
2018-06-28T12:48:23.610Z,31.80
2018-06-28T12:50:28.165Z,31.80
2018-06-28T12:53:00.105Z,31.80
2018-06-28T12:55:05.330Z,31.90
2018-06-28T12:57:09.858Z,32.00
2018-06-28T12:59:16.664Z,32.00
2018-06-28T13:01:22.155Z,32.10
2018-06-28T13:03:26.618Z,32.10
2018-06-28T13:05:31.050Z,32.10
2018-06-28T13:07:36.264Z,32.10
2018-06-28T13:09:40.676Z,32.20
2018-06-28T13:11:45.538Z,32.20
2018-06-28T13:13:50.119Z,32.20
2018-06-28T13:15:55.212Z,32.20
2018-06-28T13:18:00.084Z,32.30
2018-06-28T13:20:05.211Z,32.30
2018-06-28T13:22:09.679Z,32.30
2018-06-28T13:24:14.170Z,32.30
2018-06-28T13:26:18.959Z,32.30
2018-06-28T13:28:23.387Z,32.30
2018-06-28T13:30:27.827Z,32.30
2018-06-28T13:32:34.157Z,32.40
2018-06-28T13:34:38.714Z,32.40
2018-06-28T13:36:43.424Z,32.50
2018-06-28T13:38:47.918Z,32.50
2018-06-28T13:42:58.886Z,32.60
2018-06-28T13:45:03.360Z,32.60
2018-06-28T13:47:08.277Z,32.60
2018-06-28T13:49:13.904Z,32.60
2018-06-28T13:51:18.339Z,32.60
2018-06-28T13:53:23.062Z,32.60
2018-06-28T13:55:27.566Z,32.60
2018-06-28T13:57:32.069Z,32.70
2018-06-28T13:59:37.042Z,32.70
2018-06-28T14:01:41.899Z,32.60
2018-06-28T14:03:46.344Z,32.60
2018-06-28T14:05:50.809Z,32.70
2018-06-28T14:07:55.894Z,32.70
2018-06-28T14:10:00.351Z,32.60
2018-06-28T14:12:04.889Z,32.60
2018-06-28T14:14:09.709Z,32.60
2018-06-28T14:16:14.196Z,32.60
2018-06-28T14:18:18.699Z,32.60
2018-06-28T14:20:23.239Z,32.60
2018-06-28T14:22:27.798Z,32.60
2018-06-28T14:24:32.263Z,32.60
2018-06-28T14:26:36.790Z,32.60
2018-06-28T14:28:41.333Z,32.50
2018-06-28T14:30:45.793Z,32.60
2018-06-28T14:32:50.321Z,32.50
2018-06-28T14:34:54.837Z,32.60
2018-06-28T14:36:59.322Z,32.60
2018-06-28T14:39:04.470Z,32.60
2018-06-28T14:41:09.722Z,32.70
2018-06-28T14:43:14.314Z,32.60
2018-06-28T14:45:18.796Z,32.70
2018-06-28T14:47:23.585Z,32.70
2018-06-28T14:49:28.049Z,32.70
2018-06-28T14:51:32.608Z,32.80
2018-06-28T14:53:37.130Z,32.80
2018-06-28T14:55:41.595Z,32.80
2018-06-28T14:57:47.862Z,32.70
2018-06-28T14:59:52.377Z,32.70
2018-06-28T15:01:57.056Z,32.70
2018-06-28T15:04:01.526Z,32.60
2018-06-28T15:06:06.068Z,32.70
2018-06-28T15:08:10.790Z,32.70
2018-06-28T15:10:20.843Z,32.70
2018-06-28T15:12:25.273Z,32.70
2018-06-28T15:14:31.617Z,32.80
2018-06-28T15:16:39.813Z,32.80
2018-06-28T15:18:46.471Z,32.80
2018-06-28T15:20:53.533Z,32.80
2018-06-28T15:23:04.883Z,32.90
2018-06-28T15:25:17.535Z,32.90
2018-06-28T15:27:28.653Z,32.90
2018-06-28T15:29:38.863Z,32.90
2018-06-28T15:31:43.319Z,33.00
2018-06-28T15:33:47.930Z,33.00
2018-06-28T15:35:52.394Z,33.00
2018-06-28T15:37:57.330Z,33.00
2018-06-28T15:40:01.773Z,33.00
2018-06-28T15:42:06.306Z,33.00
2018-06-28T15:44:10.903Z,33.00
2018-06-28T15:46:15.390Z,32.90
2018-06-28T15:48:19.916Z,32.90
2018-06-28T15:50:24.404Z,32.90
2018-06-28T15:52:28.923Z,32.90
2018-06-28T15:54:33.433Z,32.90
2018-06-28T15:56:37.895Z,32.90
2018-06-28T15:58:42.435Z,33.00
2018-06-28T16:00:46.973Z,33.00
2018-06-28T16:02:51.485Z,33.00
2018-06-28T16:04:56.075Z,33.00
2018-06-28T16:07:00.899Z,33.00
2018-06-28T16:09:08.337Z,33.10
2018-06-28T16:11:12.907Z,33.00
2018-06-28T16:13:17.354Z,33.00
2018-06-28T16:15:21.846Z,33.00
2018-06-28T16:17:26.380Z,33.00
2018-06-28T16:19:30.884Z,33.00
2018-06-28T16:21:35.417Z,33.00
2018-06-28T16:23:40.195Z,33.00
2018-06-28T16:25:44.722Z,33.00
2018-06-28T16:27:50.075Z,33.00
2018-06-28T16:29:54.588Z,32.90
2018-06-28T16:32:00.127Z,32.80
2018-06-28T16:34:04.740Z,32.70
2018-06-28T16:36:09.435Z,32.60
2018-06-28T16:38:13.910Z,32.50
2018-06-28T16:40:18.691Z,32.30
2018-06-28T16:42:23.192Z,32.30
2018-06-28T16:44:27.859Z,32.20
2018-06-28T16:46:32.710Z,32.10
2018-06-28T16:48:37.461Z,32.00
2018-06-28T16:50:42.130Z,31.90
2018-06-28T16:52:46.603Z,31.70
2018-06-28T16:54:51.210Z,31.60
2018-06-28T16:56:56.549Z,31.50
2018-06-28T16:59:02.164Z,31.40
2018-06-28T17:01:07.366Z,31.30
2018-06-28T17:03:15.187Z,31.20
2018-06-28T17:05:20.974Z,31.10
2018-06-28T17:07:25.481Z,31.00
2018-06-28T17:09:29.977Z,30.90
2018-06-28T17:11:34.564Z,30.90
2018-06-28T17:13:39.074Z,30.80
2018-06-28T17:15:43.593Z,30.80
2018-06-28T17:17:48.051Z,30.70
2018-06-28T17:19:52.808Z,30.60
2018-06-28T17:21:57.309Z,30.60
2018-06-28T17:24:01.831Z,30.50
2018-06-28T17:26:06.669Z,30.50
2018-06-28T17:28:11.781Z,30.40
2018-06-28T17:30:16.306Z,30.30
2018-06-28T17:32:21.019Z,30.30
2018-06-28T17:34:25.757Z,30.20
2018-06-28T17:36:30.199Z,30.20
2018-06-28T17:38:34.892Z,30.10
2018-06-28T17:40:41.074Z,30.10
2018-06-28T17:42:45.855Z,30.00
2018-06-28T17:44:50.453Z,30.00
2018-06-28T17:46:55.884Z,29.90
2018-06-28T17:49:00.677Z,29.90
2018-06-28T17:51:05.860Z,29.80
2018-06-28T17:53:10.389Z,29.80
2018-06-28T17:55:14.904Z,29.80
2018-06-28T17:59:26.150Z,29.70
2018-06-28T18:01:31.494Z,29.70
2018-06-28T18:03:36.974Z,29.60
2018-06-28T18:05:42.110Z,29.60
2018-06-28T18:09:51.236Z,29.50
2018-06-28T18:11:56.153Z,29.40
2018-06-28T18:14:01.354Z,29.40
2018-06-28T18:16:05.901Z,29.40
2018-06-28T18:18:10.403Z,29.30
2018-06-28T18:20:15.166Z,29.30
2018-06-28T18:22:20.347Z,29.30
2018-06-28T18:24:24.804Z,29.20
2018-06-28T18:26:29.231Z,29.10
2018-06-28T18:28:33.777Z,29.10
2018-06-28T18:30:39.123Z,29.00
2018-06-28T18:32:50.813Z,29.00
2018-06-28T18:34:55.360Z,28.90
2018-06-28T18:36:59.852Z,28.80
2018-06-28T18:39:09.185Z,28.80
2018-06-28T18:41:13.679Z,28.80
2018-06-28T18:43:18.572Z,28.70
2018-06-28T18:45:24.275Z,28.70
2018-06-28T18:47:31.103Z,28.70
2018-06-28T18:49:35.959Z,28.60
2018-06-28T18:51:41.440Z,28.60
2018-06-28T18:53:46.963Z,28.50
2018-06-28T18:55:58.816Z,28.50
2018-06-28T18:58:04.420Z,28.50
2018-06-28T19:00:09.006Z,28.40
2018-06-28T19:02:14.060Z,28.30
2018-06-28T19:04:18.608Z,28.30
2018-06-28T19:06:24.246Z,28.20
2018-06-28T19:08:30.259Z,28.20
2018-06-28T19:10:40.877Z,28.10
2018-06-28T19:12:45.665Z,28.10
2018-06-28T19:14:55.330Z,28.00
2018-06-28T19:17:00.215Z,28.00
2018-06-28T19:19:05.505Z,28.00
2018-06-28T19:21:15.332Z,27.90
2018-06-28T19:23:25.048Z,27.80
2018-06-28T19:25:30.582Z,27.80
2018-06-28T19:27:35.321Z,27.70
2018-06-28T19:29:45.599Z,27.60
2018-06-28T19:31:55.769Z,27.60
2018-06-28T19:34:00.986Z,27.50
2018-06-28T19:36:06.307Z,27.50
2018-06-28T19:38:11.031Z,27.40
2018-06-28T19:40:20.975Z,27.30
2018-06-28T19:44:37.225Z,27.10
2018-06-28T19:46:42.051Z,27.00
2018-06-28T19:48:47.847Z,26.90
2018-06-28T19:50:58.159Z,26.80
2018-06-28T19:53:07.356Z,26.70
2018-06-28T19:55:11.861Z,26.60
2018-06-28T19:57:16.797Z,26.50
2018-06-28T19:59:21.384Z,26.40
2018-06-28T20:03:41.811Z,26.20
2018-06-28T20:05:46.447Z,26.10
2018-06-28T20:07:51.918Z,26.10
2018-06-28T20:09:56.827Z,26.00
2018-06-28T20:12:01.618Z,25.90
2018-06-28T20:14:11.752Z,25.80
2018-06-28T20:16:21.623Z,25.70
2018-06-28T20:18:31.417Z,25.60
2018-06-28T20:20:36.418Z,25.50
2018-06-28T20:22:41.156Z,25.40
2018-06-28T20:24:45.685Z,25.30
2018-06-28T20:26:55.458Z,25.30
2018-06-28T20:29:05.149Z,25.10
2018-06-28T20:33:25.639Z,25.00
2018-06-28T20:35:30.117Z,24.90
2018-06-28T20:37:34.807Z,24.80
2018-06-28T20:39:39.263Z,24.70
2018-06-28T20:41:43.821Z,24.60
2018-06-28T20:43:48.420Z,24.50
2018-06-28T20:45:53.033Z,24.40
2018-06-28T20:47:57.447Z,24.40
2018-06-28T20:50:02.302Z,24.30
2018-06-28T20:52:07.014Z,24.20
2018-06-28T20:54:11.510Z,24.10
2018-06-28T20:56:16.086Z,24.00
2018-06-28T20:58:20.539Z,24.00
2018-06-28T21:00:26.533Z,23.90
2018-06-28T21:04:35.255Z,23.80
2018-06-28T21:06:39.746Z,23.70
2018-06-28T21:08:44.426Z,23.70
2018-06-28T21:10:49.919Z,23.60
2018-06-28T21:12:57.811Z,23.60
2018-06-28T21:15:02.528Z,23.50
2018-06-28T21:17:07.103Z,23.40
2018-06-28T21:19:11.541Z,23.40
2018-06-28T21:21:16.068Z,23.30
2018-06-28T21:23:20.766Z,23.30
2018-06-28T21:25:25.411Z,23.20
2018-06-28T21:27:29.912Z,23.20
2018-06-28T21:29:35.683Z,23.10
2018-06-28T21:31:40.130Z,23.10
2018-06-28T21:33:44.580Z,23.00
2018-06-28T21:35:49.085Z,23.00
2018-06-28T21:37:53.623Z,22.90
2018-06-28T21:39:58.090Z,22.80
2018-06-28T21:42:02.683Z,22.80
2018-06-28T21:44:07.494Z,22.70
2018-06-28T21:46:11.945Z,22.70
2018-06-28T21:48:16.620Z,22.60
2018-06-28T21:50:21.053Z,22.60
2018-06-28T21:52:25.562Z,22.50
2018-06-28T21:56:34.170Z,22.40
2018-06-28T21:58:38.659Z,22.40
2018-06-28T22:00:43.198Z,22.30
2018-06-28T22:02:47.713Z,22.30
2018-06-28T22:04:52.191Z,22.20
2018-06-28T22:06:56.666Z,22.20
2018-06-28T22:10:56.450Z,22.10
2018-06-28T22:13:00.975Z,22.00
2018-06-28T22:15:06.148Z,21.90
2018-06-28T22:17:10.673Z,21.90
2018-06-28T22:19:15.142Z,21.90
2018-06-28T22:21:19.684Z,21.80
2018-06-28T22:23:24.148Z,21.80
2018-06-28T22:25:29.688Z,21.70
2018-06-28T22:27:34.191Z,21.70
2018-06-28T22:29:38.666Z,21.70
2018-06-28T22:31:43.146Z,21.60
2018-06-28T22:33:47.708Z,21.60
2018-06-28T22:35:52.151Z,21.60
2018-06-28T22:37:56.631Z,21.50
2018-06-28T22:40:01.086Z,21.50
2018-06-28T22:42:05.563Z,21.50
2018-06-28T22:44:10.058Z,21.50
2018-06-28T22:46:14.470Z,21.40
2018-06-28T22:48:18.919Z,21.40
2018-06-28T22:50:23.460Z,21.30
2018-06-28T22:52:27.982Z,21.30
2018-06-28T22:54:32.487Z,21.30
2018-06-28T22:56:36.911Z,21.20
2018-06-28T22:58:41.390Z,21.20
2018-06-28T23:00:45.906Z,21.20
2018-06-28T23:02:50.411Z,21.20
2018-06-28T23:04:55.529Z,21.10
2018-06-28T23:07:00.033Z,21.10
2018-06-28T23:09:07.074Z,21.00
2018-06-28T23:11:11.642Z,21.00
2018-06-28T23:13:16.133Z,20.90
2018-06-28T23:15:20.595Z,20.90
2018-06-28T23:17:25.161Z,20.80
2018-06-28T23:19:29.658Z,20.80
2018-06-28T23:21:34.186Z,20.80
2018-06-28T23:25:42.931Z,20.70
2018-06-28T23:27:48.861Z,20.70
2018-06-28T23:29:53.287Z,20.60
2018-06-28T23:31:57.803Z,20.60
2018-06-28T23:34:02.861Z,20.50
2018-06-28T23:36:08.256Z,20.50
2018-06-28T23:38:12.714Z,20.40
2018-06-28T23:40:17.170Z,20.40
2018-06-28T23:42:21.615Z,20.40
2018-06-28T23:44:26.107Z,20.40
2018-06-28T23:46:30.546Z,20.30
2018-06-28T23:48:35.055Z,20.30
2018-06-28T23:50:39.526Z,20.30
2018-06-28T23:52:44.074Z,20.20
2018-06-28T23:54:48.713Z,20.10
2018-06-28T23:56:54.116Z,20.10
2018-06-28T23:58:58.750Z,20.10
